sensor_id;sensor_type;location;lat;lon;timestamp;P1;durP1;ratioP1;P2;durP2;ratioP2
14001;SDS011;7076;51.280;12.584;2023-11-18T00:04:19;1.30;;;1.20;;
14001;SDS011;7076;51.280;12.584;2023-11-18T00:09:23;3.07;;;2.10;;
14001;SDS011;7076;51.280;12.584;2023-11-18T00:14:26;5.10;;;1.77;;
14001;SDS011;7076;51.280;12.584;2023-11-18T00:19:28;2.00;;;1.80;;
14001;SDS011;7076;51.280;12.584;2023-11-18T00:24:32;2.60;;;2.07;;
14001;SDS011;7076;51.280;12.584;2023-11-18T00:29:35;2.00;;;1.80;;
14001;SDS011;7076;51.280;12.584;2023-11-18T00:34:39;2.00;;;1.50;;
14001;SDS011;7076;51.280;12.584;2023-11-18T00:39:43;2.37;;;1.50;;
14001;SDS011;7076;51.280;12.584;2023-11-18T00:44:46;2.30;;;1.90;;
14001;SDS011;7076;51.280;12.584;2023-11-18T00:49:49;3.60;;;2.23;;
14001;SDS011;7076;51.280;12.584;2023-11-18T00:54:54;2.10;;;1.80;;
14001;SDS011;7076;51.280;12.584;2023-11-18T00:59:57;2.40;;;1.90;;
14001;SDS011;7076;51.280;12.584;2023-11-18T01:05:00;4.90;;;2.10;;
14001;SDS011;7076;51.280;12.584;2023-11-18T01:10:04;2.70;;;1.50;;
14001;SDS011;7076;51.280;12.584;2023-11-18T01:15:08;2.03;;;1.40;;
14001;SDS011;7076;51.280;12.584;2023-11-18T01:20:12;2.10;;;1.37;;
14001;SDS011;7076;51.280;12.584;2023-11-18T01:25:16;1.90;;;1.40;;
14001;SDS011;7076;51.280;12.584;2023-11-18T01:30:20;2.30;;;1.33;;
14001;SDS011;7076;51.280;12.584;2023-11-18T01:35:24;1.43;;;1.10;;
14001;SDS011;7076;51.280;12.584;2023-11-18T01:40:29;2.57;;;1.50;;
14001;SDS011;7076;51.280;12.584;2023-11-18T01:45:33;1.47;;;1.30;;
14001;SDS011;7076;51.280;12.584;2023-11-18T01:50:35;2.07;;;1.40;;
14001;SDS011;7076;51.280;12.584;2023-11-18T01:55:40;1.77;;;1.10;;
14001;SDS011;7076;51.280;12.584;2023-11-18T02:00:43;1.17;;;1.07;;
14001;SDS011;7076;51.280;12.584;2023-11-18T02:05:47;1.23;;;1.10;;
14001;SDS011;7076;51.280;12.584;2023-11-18T02:10:54;2.87;;;1.70;;
14001;SDS011;7076;51.280;12.584;2023-11-18T02:15:59;1.47;;;1.37;;
14001;SDS011;7076;51.280;12.584;2023-11-18T02:21:03;1.27;;;1.10;;
14001;SDS011;7076;51.280;12.584;2023-11-18T02:26:08;1.50;;;1.27;;
14001;SDS011;7076;51.280;12.584;2023-11-18T02:31:13;1.53;;;1.27;;
14001;SDS011;7076;51.280;12.584;2023-11-18T02:36:19;2.00;;;1.20;;
14001;SDS011;7076;51.280;12.584;2023-11-18T02:41:25;1.67;;;1.30;;
14001;SDS011;7076;51.280;12.584;2023-11-18T02:46:30;3.70;;;1.30;;
14001;SDS011;7076;51.280;12.584;2023-11-18T02:51:33;1.20;;;1.10;;
14001;SDS011;7076;51.280;12.584;2023-11-18T02:56:42;1.20;;;1.10;;
14001;SDS011;7076;51.280;12.584;2023-11-18T03:01:44;2.40;;;1.20;;
14001;SDS011;7076;51.280;12.584;2023-11-18T03:06:47;1.73;;;1.33;;
14001;SDS011;7076;51.280;12.584;2023-11-18T03:11:51;1.77;;;1.37;;
14001;SDS011;7076;51.280;12.584;2023-11-18T03:16:53;1.80;;;1.30;;
14001;SDS011;7076;51.280;12.584;2023-11-18T03:21:57;5.07;;;1.30;;
14001;SDS011;7076;51.280;12.584;2023-11-18T03:27:01;3.10;;;1.50;;
14001;SDS011;7076;51.280;12.584;2023-11-18T03:32:04;1.40;;;1.30;;
14001;SDS011;7076;51.280;12.584;2023-11-18T03:37:07;2.47;;;1.50;;
14001;SDS011;7076;51.280;12.584;2023-11-18T03:42:11;2.33;;;1.63;;
14001;SDS011;7076;51.280;12.584;2023-11-18T03:47:13;1.63;;;1.40;;
14001;SDS011;7076;51.280;12.584;2023-11-18T03:52:16;2.17;;;1.97;;
14001;SDS011;7076;51.280;12.584;2023-11-18T03:57:20;1.63;;;1.53;;
14001;SDS011;7076;51.280;12.584;2023-11-18T04:02:23;2.43;;;1.57;;
14001;SDS011;7076;51.280;12.584;2023-11-18T04:07:26;2.60;;;1.93;;
14001;SDS011;7076;51.280;12.584;2023-11-18T04:12:31;2.10;;;1.87;;
14001;SDS011;7076;51.280;12.584;2023-11-18T04:17:34;2.50;;;1.80;;
14001;SDS011;7076;51.280;12.584;2023-11-18T04:22:38;3.07;;;1.90;;
14001;SDS011;7076;51.280;12.584;2023-11-18T04:27:42;2.23;;;1.80;;
14001;SDS011;7076;51.280;12.584;2023-11-18T04:32:47;3.13;;;2.17;;
14001;SDS011;7076;51.280;12.584;2023-11-18T04:37:50;3.90;;;2.40;;
14001;SDS011;7076;51.280;12.584;2023-11-18T04:42:54;2.30;;;2.10;;
14001;SDS011;7076;51.280;12.584;2023-11-18T04:47:56;4.33;;;2.00;;
14001;SDS011;7076;51.280;12.584;2023-11-18T04:53:00;3.33;;;2.70;;
14001;SDS011;7076;51.280;12.584;2023-11-18T04:58:05;3.10;;;2.57;;
14001;SDS011;7076;51.280;12.584;2023-11-18T05:03:08;3.87;;;3.00;;
14001;SDS011;7076;51.280;12.584;2023-11-18T05:08:17;3.90;;;2.73;;
14001;SDS011;7076;51.280;12.584;2023-11-18T05:13:22;8.87;;;3.77;;
14001;SDS011;7076;51.280;12.584;2023-11-18T05:18:24;8.03;;;4.10;;
14001;SDS011;7076;51.280;12.584;2023-11-18T05:23:31;4.43;;;3.70;;
14001;SDS011;7076;51.280;12.584;2023-11-18T05:28:35;5.33;;;3.70;;
14001;SDS011;7076;51.280;12.584;2023-11-18T05:33:37;6.63;;;3.87;;
14001;SDS011;7076;51.280;12.584;2023-11-18T05:38:40;8.30;;;4.50;;
14001;SDS011;7076;51.280;12.584;2023-11-18T05:43:46;7.80;;;5.17;;
14001;SDS011;7076;51.280;12.584;2023-11-18T05:48:53;7.80;;;4.93;;
14001;SDS011;7076;51.280;12.584;2023-11-18T05:53:55;7.30;;;5.10;;
14001;SDS011;7076;51.280;12.584;2023-11-18T05:58:59;7.90;;;5.03;;
14001;SDS011;7076;51.280;12.584;2023-11-18T06:04:04;7.53;;;4.77;;
14001;SDS011;7076;51.280;12.584;2023-11-18T06:09:09;7.93;;;5.03;;
14001;SDS011;7076;51.280;12.584;2023-11-18T06:14:23;6.90;;;4.83;;
14001;SDS011;7076;51.280;12.584;2023-11-18T06:19:28;6.90;;;4.50;;
14001;SDS011;7076;51.280;12.584;2023-11-18T06:24:30;7.37;;;5.17;;
14001;SDS011;7076;51.280;12.584;2023-11-18T06:29:34;6.73;;;4.87;;
14001;SDS011;7076;51.280;12.584;2023-11-18T06:34:37;6.63;;;4.90;;
14001;SDS011;7076;51.280;12.584;2023-11-18T06:39:41;6.97;;;4.87;;
14001;SDS011;7076;51.280;12.584;2023-11-18T06:44:46;10.23;;;4.93;;
14001;SDS011;7076;51.280;12.584;2023-11-18T06:49:50;7.77;;;5.50;;
14001;SDS011;7076;51.280;12.584;2023-11-18T06:54:54;8.17;;;5.57;;
14001;SDS011;7076;51.280;12.584;2023-11-18T06:59:58;7.03;;;4.83;;
14001;SDS011;7076;51.280;12.584;2023-11-18T07:05:01;6.40;;;4.90;;
14001;SDS011;7076;51.280;12.584;2023-11-18T07:10:04;9.27;;;5.83;;
14001;SDS011;7076;51.280;12.584;2023-11-18T07:15:09;8.13;;;5.93;;
14001;SDS011;7076;51.280;12.584;2023-11-18T07:20:13;10.17;;;6.73;;
14001;SDS011;7076;51.280;12.584;2023-11-18T07:25:16;9.93;;;7.07;;
14001;SDS011;7076;51.280;12.584;2023-11-18T07:30:20;10.30;;;6.63;;
14001;SDS011;7076;51.280;12.584;2023-11-18T07:35:24;8.63;;;6.03;;
14001;SDS011;7076;51.280;12.584;2023-11-18T07:40:28;12.40;;;7.47;;
14001;SDS011;7076;51.280;12.584;2023-11-18T07:45:35;9.47;;;6.73;;
14001;SDS011;7076;51.280;12.584;2023-11-18T07:50:40;11.40;;;6.83;;
14001;SDS011;7076;51.280;12.584;2023-11-18T07:55:42;13.07;;;6.97;;
14001;SDS011;7076;51.280;12.584;2023-11-18T08:00:48;13.07;;;8.30;;
14001;SDS011;7076;51.280;12.584;2023-11-18T08:05:50;10.93;;;6.50;;
14001;SDS011;7076;51.280;12.584;2023-11-18T08:10:53;12.67;;;7.27;;
14001;SDS011;7076;51.280;12.584;2023-11-18T08:15:58;11.63;;;7.70;;
14001;SDS011;7076;51.280;12.584;2023-11-18T08:21:01;11.03;;;7.10;;
14001;SDS011;7076;51.280;12.584;2023-11-18T08:26:04;11.40;;;7.40;;
14001;SDS011;7076;51.280;12.584;2023-11-18T08:31:09;12.30;;;7.40;;
14001;SDS011;7076;51.280;12.584;2023-11-18T08:36:12;10.40;;;7.03;;
14001;SDS011;7076;51.280;12.584;2023-11-18T08:41:15;11.57;;;7.13;;
14001;SDS011;7076;51.280;12.584;2023-11-18T08:46:19;11.60;;;6.63;;
14001;SDS011;7076;51.280;12.584;2023-11-18T08:51:21;9.77;;;6.43;;
14001;SDS011;7076;51.280;12.584;2023-11-18T08:56:27;8.40;;;6.20;;
14001;SDS011;7076;51.280;12.584;2023-11-18T09:01:37;6.67;;;4.90;;
14001;SDS011;7076;51.280;12.584;2023-11-18T09:06:41;10.17;;;5.67;;
14001;SDS011;7076;51.280;12.584;2023-11-18T09:11:43;6.18;;;4.35;;
14001;SDS011;7076;51.280;12.584;2023-11-18T09:16:48;7.68;;;5.60;;
14001;SDS011;7076;51.280;12.584;2023-11-18T09:21:50;10.13;;;5.72;;
14001;SDS011;7076;51.280;12.584;2023-11-18T09:26:55;9.18;;;5.10;;
14001;SDS011;7076;51.280;12.584;2023-11-18T09:31:59;6.10;;;4.68;;
14001;SDS011;7076;51.280;12.584;2023-11-18T09:37:07;8.07;;;5.30;;
14001;SDS011;7076;51.280;12.584;2023-11-18T09:42:11;6.80;;;4.97;;
14001;SDS011;7076;51.280;12.584;2023-11-18T09:47:21;7.70;;;4.90;;
14001;SDS011;7076;51.280;12.584;2023-11-18T09:52:26;8.18;;;5.22;;
14001;SDS011;7076;51.280;12.584;2023-11-18T09:57:34;6.95;;;4.93;;
14001;SDS011;7076;51.280;12.584;2023-11-18T10:02:42;7.00;;;4.93;;
14001;SDS011;7076;51.280;12.584;2023-11-18T10:07:47;7.22;;;5.40;;
14001;SDS011;7076;51.280;12.584;2023-11-18T10:12:50;8.35;;;5.68;;
14001;SDS011;7076;51.280;12.584;2023-11-18T10:17:55;7.75;;;5.43;;
14001;SDS011;7076;51.280;12.584;2023-11-18T10:23:08;8.38;;;5.78;;
14001;SDS011;7076;51.280;12.584;2023-11-18T10:28:20;10.07;;;7.30;;
14001;SDS011;7076;51.280;12.584;2023-11-18T10:33:24;10.05;;;5.90;;
14001;SDS011;7076;51.280;12.584;2023-11-18T10:38:32;9.07;;;5.57;;
14001;SDS011;7076;51.280;12.584;2023-11-18T10:43:38;7.57;;;5.20;;
14001;SDS011;7076;51.280;12.584;2023-11-18T10:48:45;6.63;;;4.60;;
14001;SDS011;7076;51.280;12.584;2023-11-18T10:53:50;9.77;;;6.78;;
14001;SDS011;7076;51.280;12.584;2023-11-18T10:59:04;2.67;;;2.13;;
14001;SDS011;7076;51.280;12.584;2023-11-18T11:04:09;5.35;;;3.08;;
14001;SDS011;7076;51.280;12.584;2023-11-18T11:09:12;4.97;;;4.10;;
14001;SDS011;7076;51.280;12.584;2023-11-18T11:14:20;5.72;;;4.38;;
14001;SDS011;7076;51.280;12.584;2023-11-18T11:19:25;3.88;;;3.13;;
14001;SDS011;7076;51.280;12.584;2023-11-18T11:24:32;5.47;;;3.60;;
14001;SDS011;7076;51.280;12.584;2023-11-18T11:29:45;4.57;;;3.50;;
14001;SDS011;7076;51.280;12.584;2023-11-18T11:34:53;4.40;;;3.35;;
14001;SDS011;7076;51.280;12.584;2023-11-18T11:39:58;5.93;;;4.28;;
14001;SDS011;7076;51.280;12.584;2023-11-18T11:45:00;5.85;;;3.35;;
14001;SDS011;7076;51.280;12.584;2023-11-18T11:50:07;4.75;;;3.63;;
14001;SDS011;7076;51.280;12.584;2023-11-18T11:55:15;5.10;;;3.80;;
14001;SDS011;7076;51.280;12.584;2023-11-18T12:00:21;4.40;;;3.40;;
14001;SDS011;7076;51.280;12.584;2023-11-18T12:05:29;3.95;;;3.40;;
14001;SDS011;7076;51.280;12.584;2023-11-18T12:10:35;4.70;;;3.70;;
14001;SDS011;7076;51.280;12.584;2023-11-18T12:15:48;6.07;;;3.72;;
14001;SDS011;7076;51.280;12.584;2023-11-18T12:20:57;7.10;;;4.03;;
14001;SDS011;7076;51.280;12.584;2023-11-18T12:26:03;4.68;;;3.72;;
14001;SDS011;7076;51.280;12.584;2023-11-18T12:31:38;5.50;;;4.03;;
14001;SDS011;7076;51.280;12.584;2023-11-18T12:36:52;5.97;;;3.95;;
14001;SDS011;7076;51.280;12.584;2023-11-18T12:42:01;7.50;;;5.20;;
14001;SDS011;7076;51.280;12.584;2023-11-18T12:47:10;4.95;;;4.20;;
14001;SDS011;7076;51.280;12.584;2023-11-18T12:52:21;6.82;;;4.57;;
14001;SDS011;7076;51.280;12.584;2023-11-18T12:57:26;6.32;;;4.80;;
14001;SDS011;7076;51.280;12.584;2023-11-18T13:02:32;7.65;;;5.47;;
14001;SDS011;7076;51.280;12.584;2023-11-18T13:07:37;6.43;;;4.38;;
14001;SDS011;7076;51.280;12.584;2023-11-18T13:12:41;5.20;;;4.57;;
14001;SDS011;7076;51.280;12.584;2023-11-18T13:17:56;4.65;;;3.95;;
14001;SDS011;7076;51.280;12.584;2023-11-18T13:23:00;7.85;;;4.07;;
14001;SDS011;7076;51.280;12.584;2023-11-18T13:28:09;5.38;;;4.07;;
14001;SDS011;7076;51.280;12.584;2023-11-18T13:33:12;8.02;;;5.18;;
14001;SDS011;7076;51.280;12.584;2023-11-18T13:38:16;7.25;;;5.32;;
14001;SDS011;7076;51.280;12.584;2023-11-18T13:43:20;7.13;;;5.05;;
14001;SDS011;7076;51.280;12.584;2023-11-18T13:48:24;7.60;;;4.57;;
14001;SDS011;7076;51.280;12.584;2023-11-18T13:53:29;5.72;;;3.97;;
14001;SDS011;7076;51.280;12.584;2023-11-18T13:58:33;6.80;;;4.10;;
14001;SDS011;7076;51.280;12.584;2023-11-18T14:03:36;5.53;;;4.10;;
14001;SDS011;7076;51.280;12.584;2023-11-18T14:08:41;8.40;;;4.80;;
14001;SDS011;7076;51.280;12.584;2023-11-18T14:13:44;5.93;;;4.35;;
14001;SDS011;7076;51.280;12.584;2023-11-18T14:18:46;8.45;;;5.22;;
14001;SDS011;7076;51.280;12.584;2023-11-18T14:23:51;6.95;;;5.53;;
14001;SDS011;7076;51.280;12.584;2023-11-18T14:28:57;7.60;;;5.00;;
14001;SDS011;7076;51.280;12.584;2023-11-18T14:34:01;5.25;;;4.53;;
14001;SDS011;7076;51.280;12.584;2023-11-18T14:39:06;8.40;;;4.78;;
14001;SDS011;7076;51.280;12.584;2023-11-18T14:44:11;7.00;;;4.65;;
14001;SDS011;7076;51.280;12.584;2023-11-18T14:49:14;6.57;;;4.60;;
14001;SDS011;7076;51.280;12.584;2023-11-18T14:54:18;9.27;;;5.82;;
14001;SDS011;7076;51.280;12.584;2023-11-18T14:59:21;7.30;;;5.25;;
14001;SDS011;7076;51.280;12.584;2023-11-18T15:04:24;6.22;;;5.22;;
14001;SDS011;7076;51.280;12.584;2023-11-18T15:09:29;7.38;;;5.13;;
14001;SDS011;7076;51.280;12.584;2023-11-18T15:14:33;7.40;;;5.90;;
14001;SDS011;7076;51.280;12.584;2023-11-18T15:19:38;9.68;;;5.78;;
14001;SDS011;7076;51.280;12.584;2023-11-18T15:24:42;13.88;;;10.05;;
14001;SDS011;7076;51.280;12.584;2023-11-18T15:29:45;10.07;;;6.40;;
14001;SDS011;7076;51.280;12.584;2023-11-18T15:34:50;10.05;;;6.82;;
14001;SDS011;7076;51.280;12.584;2023-11-18T15:39:54;11.02;;;8.75;;
14001;SDS011;7076;51.280;12.584;2023-11-18T15:44:57;14.27;;;8.20;;
14001;SDS011;7076;51.280;12.584;2023-11-18T15:50:01;11.47;;;7.90;;
14001;SDS011;7076;51.280;12.584;2023-11-18T15:55:07;17.48;;;9.15;;
14001;SDS011;7076;51.280;12.584;2023-11-18T16:00:15;11.77;;;8.32;;
14001;SDS011;7076;51.280;12.584;2023-11-18T16:05:18;9.23;;;6.40;;
14001;SDS011;7076;51.280;12.584;2023-11-18T16:10:24;9.40;;;6.47;;
14001;SDS011;7076;51.280;12.584;2023-11-18T16:15:27;8.38;;;6.22;;
14001;SDS011;7076;51.280;12.584;2023-11-18T16:20:30;6.32;;;5.35;;
14001;SDS011;7076;51.280;12.584;2023-11-18T16:25:37;9.35;;;6.20;;
14001;SDS011;7076;51.280;12.584;2023-11-18T16:30:39;8.48;;;6.10;;
14001;SDS011;7076;51.280;12.584;2023-11-18T16:35:42;8.83;;;6.63;;
14001;SDS011;7076;51.280;12.584;2023-11-18T16:40:46;10.50;;;6.20;;
14001;SDS011;7076;51.280;12.584;2023-11-18T16:45:49;10.53;;;7.00;;
14001;SDS011;7076;51.280;12.584;2023-11-18T16:50:52;9.50;;;7.22;;
14001;SDS011;7076;51.280;12.584;2023-11-18T16:55:57;8.33;;;6.43;;
14001;SDS011;7076;51.280;12.584;2023-11-18T17:01:00;8.95;;;6.30;;
14001;SDS011;7076;51.280;12.584;2023-11-18T17:06:06;8.30;;;6.22;;
14001;SDS011;7076;51.280;12.584;2023-11-18T17:11:10;11.73;;;8.03;;
14001;SDS011;7076;51.280;12.584;2023-11-18T17:16:12;16.23;;;9.70;;
14001;SDS011;7076;51.280;12.584;2023-11-18T17:21:18;10.20;;;7.45;;
14001;SDS011;7076;51.280;12.584;2023-11-18T17:26:22;11.00;;;6.38;;
14001;SDS011;7076;51.280;12.584;2023-11-18T17:31:25;9.75;;;6.47;;
14001;SDS011;7076;51.280;12.584;2023-11-18T17:36:29;7.63;;;6.37;;
14001;SDS011;7076;51.280;12.584;2023-11-18T17:41:33;8.90;;;6.10;;
14001;SDS011;7076;51.280;12.584;2023-11-18T17:46:37;10.32;;;6.00;;
14001;SDS011;7076;51.280;12.584;2023-11-18T17:51:40;8.55;;;5.40;;
14001;SDS011;7076;51.280;12.584;2023-11-18T17:56:45;7.47;;;5.28;;
14001;SDS011;7076;51.280;12.584;2023-11-18T18:01:47;4.78;;;4.18;;
14001;SDS011;7076;51.280;12.584;2023-11-18T18:06:50;4.97;;;3.97;;
14001;SDS011;7076;51.280;12.584;2023-11-18T18:11:54;4.20;;;3.72;;
14001;SDS011;7076;51.280;12.584;2023-11-18T18:16:57;6.70;;;4.03;;
14001;SDS011;7076;51.280;12.584;2023-11-18T18:22:00;4.53;;;3.67;;
14001;SDS011;7076;51.280;12.584;2023-11-18T18:27:06;7.07;;;4.03;;
14001;SDS011;7076;51.280;12.584;2023-11-18T18:32:08;6.43;;;3.85;;
14001;SDS011;7076;51.280;12.584;2023-11-18T18:37:12;5.28;;;4.07;;
14001;SDS011;7076;51.280;12.584;2023-11-18T18:42:16;6.15;;;3.90;;
14001;SDS011;7076;51.280;12.584;2023-11-18T18:47:20;6.22;;;4.80;;
14001;SDS011;7076;51.280;12.584;2023-11-18T18:52:23;5.15;;;3.90;;
14001;SDS011;7076;51.280;12.584;2023-11-18T18:57:27;4.50;;;3.63;;
14001;SDS011;7076;51.280;12.584;2023-11-18T19:02:29;5.53;;;4.07;;
14001;SDS011;7076;51.280;12.584;2023-11-18T19:07:32;7.28;;;4.05;;
14001;SDS011;7076;51.280;12.584;2023-11-18T19:12:36;5.25;;;3.90;;
14001;SDS011;7076;51.280;12.584;2023-11-18T19:17:39;6.18;;;4.07;;
14001;SDS011;7076;51.280;12.584;2023-11-18T19:22:42;4.90;;;3.85;;
14001;SDS011;7076;51.280;12.584;2023-11-18T19:27:46;5.00;;;3.50;;
14001;SDS011;7076;51.280;12.584;2023-11-18T19:32:49;4.80;;;3.58;;
14001;SDS011;7076;51.280;12.584;2023-11-18T19:37:52;4.38;;;3.70;;
14001;SDS011;7076;51.280;12.584;2023-11-18T19:42:56;5.70;;;3.88;;
14001;SDS011;7076;51.280;12.584;2023-11-18T19:48:00;5.60;;;4.00;;
14001;SDS011;7076;51.280;12.584;2023-11-18T19:53:03;5.35;;;4.35;;
14001;SDS011;7076;51.280;12.584;2023-11-18T19:58:07;6.80;;;4.22;;
14001;SDS011;7076;51.280;12.584;2023-11-18T20:03:10;5.22;;;3.65;;
14001;SDS011;7076;51.280;12.584;2023-11-18T20:08:16;6.90;;;3.90;;
14001;SDS011;7076;51.280;12.584;2023-11-18T20:13:21;7.55;;;4.30;;
14001;SDS011;7076;51.280;12.584;2023-11-18T20:18:23;6.13;;;4.15;;
14001;SDS011;7076;51.280;12.584;2023-11-18T20:23:26;6.03;;;4.20;;
14001;SDS011;7076;51.280;12.584;2023-11-18T20:28:30;6.18;;;4.30;;
14001;SDS011;7076;51.280;12.584;2023-11-18T20:33:35;8.02;;;4.68;;
14001;SDS011;7076;51.280;12.584;2023-11-18T20:38:43;7.35;;;4.10;;
14001;SDS011;7076;51.280;12.584;2023-11-18T20:43:49;6.00;;;4.20;;
14001;SDS011;7076;51.280;12.584;2023-11-18T20:48:51;6.35;;;3.90;;
14001;SDS011;7076;51.280;12.584;2023-11-18T20:53:54;5.40;;;4.10;;
14001;SDS011;7076;51.280;12.584;2023-11-18T20:58:58;5.43;;;3.55;;
14001;SDS011;7076;51.280;12.584;2023-11-18T21:04:02;6.80;;;3.72;;
14001;SDS011;7076;51.280;12.584;2023-11-18T21:09:06;5.28;;;3.97;;
14001;SDS011;7076;51.280;12.584;2023-11-18T21:14:10;4.82;;;3.65;;
14001;SDS011;7076;51.280;12.584;2023-11-18T21:19:13;4.70;;;3.72;;
14001;SDS011;7076;51.280;12.584;2023-11-18T21:24:16;4.43;;;3.77;;
14001;SDS011;7076;51.280;12.584;2023-11-18T21:29:20;4.57;;;3.70;;
14001;SDS011;7076;51.280;12.584;2023-11-18T21:34:23;5.18;;;3.55;;
14001;SDS011;7076;51.280;12.584;2023-11-18T21:39:25;5.47;;;3.97;;
14001;SDS011;7076;51.280;12.584;2023-11-18T21:44:29;6.03;;;4.07;;
14001;SDS011;7076;51.280;12.584;2023-11-18T21:49:32;4.60;;;4.03;;
14001;SDS011;7076;51.280;12.584;2023-11-18T21:54:35;5.80;;;4.47;;
14001;SDS011;7076;51.280;12.584;2023-11-18T21:59:39;4.60;;;3.57;;
14001;SDS011;7076;51.280;12.584;2023-11-18T22:04:42;5.90;;;3.90;;
14001;SDS011;7076;51.280;12.584;2023-11-18T22:09:44;5.03;;;4.30;;
14001;SDS011;7076;51.280;12.584;2023-11-18T22:14:49;5.50;;;3.75;;
14001;SDS011;7076;51.280;12.584;2023-11-18T22:19:52;4.07;;;3.53;;
14001;SDS011;7076;51.280;12.584;2023-11-18T22:24:55;3.78;;;3.38;;
14001;SDS011;7076;51.280;12.584;2023-11-18T22:29:59;5.13;;;3.43;;
14001;SDS011;7076;51.280;12.584;2023-11-18T22:35:02;3.23;;;2.60;;
14001;SDS011;7076;51.280;12.584;2023-11-18T22:40:05;3.00;;;2.40;;
14001;SDS011;7076;51.280;12.584;2023-11-18T22:45:12;3.30;;;2.53;;
14001;SDS011;7076;51.280;12.584;2023-11-18T22:50:18;2.45;;;2.08;;
14001;SDS011;7076;51.280;12.584;2023-11-18T22:55:23;2.13;;;1.93;;
14001;SDS011;7076;51.280;12.584;2023-11-18T23:00:27;3.03;;;2.47;;
14001;SDS011;7076;51.280;12.584;2023-11-18T23:05:43;2.90;;;1.90;;
14001;SDS011;7076;51.280;12.584;2023-11-18T23:10:46;4.10;;;2.47;;
14001;SDS011;7076;51.280;12.584;2023-11-18T23:15:50;2.27;;;2.03;;
14001;SDS011;7076;51.280;12.584;2023-11-18T23:20:57;2.10;;;1.80;;
14001;SDS011;7076;51.280;12.584;2023-11-18T23:25:59;1.77;;;1.60;;
14001;SDS011;7076;51.280;12.584;2023-11-18T23:31:04;2.37;;;1.70;;
14001;SDS011;7076;51.280;12.584;2023-11-18T23:36:07;1.67;;;1.40;;
14001;SDS011;7076;51.280;12.584;2023-11-18T23:41:11;1.83;;;1.60;;
14001;SDS011;7076;51.280;12.584;2023-11-18T23:46:15;1.42;;;1.30;;
14001;SDS011;7076;51.280;12.584;2023-11-18T23:51:18;1.83;;;1.50;;
14001;SDS011;7076;51.280;12.584;2023-11-18T23:56:21;1.57;;;1.10;;
